createdAt,value
2019-01-20T00:00:31.148Z,28.17
2019-01-20T00:02:59.645Z,32.57
2019-01-20T00:05:28.645Z,23.80
2019-01-20T00:07:57.100Z,24.73
2019-01-20T00:10:25.577Z,27.43
2019-01-20T00:12:54.349Z,32.07
2019-01-20T00:15:23.215Z,22.27
2019-01-20T00:17:51.954Z,32.80
2019-01-20T00:20:22.256Z,25.63
2019-01-20T00:22:53.312Z,27.70
2019-01-20T00:25:21.743Z,31.73
2019-01-20T00:27:50.316Z,30.90
2019-01-20T00:30:20.719Z,32.20
2019-01-20T00:32:49.354Z,28.57
2019-01-20T00:35:17.881Z,27.57
2019-01-20T00:37:46.330Z,33.97
2019-01-20T00:40:16.701Z,23.63
2019-01-20T00:42:45.694Z,27.40
2019-01-20T00:45:16.670Z,31.27
2019-01-20T00:47:45.171Z,24.47
2019-01-20T00:50:16.238Z,36.47
2019-01-20T00:52:45.074Z,19.20
2019-01-20T00:55:18.248Z,23.13
2019-01-20T00:57:52.706Z,24.13
2019-01-20T01:00:24.532Z,25.77
2019-01-20T01:02:56.007Z,26.93
2019-01-20T01:05:24.912Z,27.10
2019-01-20T01:07:57.929Z,28.40
2019-01-20T01:10:26.596Z,24.23
2019-01-20T01:12:58.552Z,23.83
2019-01-20T01:15:27.234Z,27.07
2019-01-20T01:17:55.860Z,22.03
2019-01-20T01:20:26.437Z,28.07
2019-01-20T01:22:54.822Z,26.17
2019-01-20T01:25:23.433Z,23.13
2019-01-20T01:27:53.480Z,27.57
2019-01-20T01:30:25.510Z,34.20
2019-01-20T01:32:55.030Z,23.13
2019-01-20T01:35:23.474Z,30.23
2019-01-20T01:37:52.020Z,29.00
2019-01-20T01:40:21.082Z,27.00
2019-01-20T01:42:51.715Z,29.83
2019-01-20T01:45:23.306Z,28.50
2019-01-20T01:47:52.098Z,29.33
2019-01-20T01:50:20.675Z,33.10
2019-01-20T01:52:50.487Z,29.50
2019-01-20T01:55:18.871Z,29.17
2019-01-20T01:57:47.335Z,33.63
2019-01-20T02:00:18.714Z,28.37
2019-01-20T02:02:50.289Z,34.20
2019-01-20T02:05:19.777Z,28.67
2019-01-20T02:07:48.258Z,33.10
2019-01-20T02:10:18.979Z,31.47
2019-01-20T02:12:49.761Z,31.97
2019-01-20T02:15:20.959Z,27.43
2019-01-20T02:17:50.261Z,28.70
2019-01-20T02:20:23.574Z,30.23
2019-01-20T02:22:52.359Z,34.20
2019-01-20T02:25:21.044Z,33.30
2019-01-20T02:27:51.187Z,27.93
2019-01-20T02:30:22.266Z,33.67
2019-01-20T02:32:50.710Z,27.43
2019-01-20T02:35:19.256Z,30.77
2019-01-20T02:37:47.626Z,31.73
2019-01-20T02:40:17.774Z,31.63
2019-01-20T02:42:46.231Z,26.57
2019-01-20T02:45:16.184Z,29.07
2019-01-20T02:47:44.793Z,35.10
2019-01-20T02:50:15.797Z,30.60
2019-01-20T02:52:44.219Z,27.87
2019-01-20T02:55:13.114Z,33.73
2019-01-20T02:57:41.613Z,32.13
2019-01-20T03:00:16.079Z,35.67
2019-01-20T03:02:46.792Z,30.73
2019-01-20T03:05:15.898Z,29.50
2019-01-20T03:07:44.426Z,27.60
2019-01-20T03:10:14.558Z,33.47
2019-01-20T03:12:43.036Z,32.23
2019-01-20T03:15:13.719Z,30.17
2019-01-20T03:17:42.224Z,30.03
2019-01-20T03:20:13.791Z,39.60
2019-01-20T03:22:42.244Z,33.83
2019-01-20T03:25:13.629Z,30.50
2019-01-20T03:27:42.144Z,36.07
2019-01-20T03:30:14.163Z,33.57
2019-01-20T03:32:42.604Z,34.40
2019-01-20T03:35:12.379Z,31.93
2019-01-20T03:37:41.014Z,32.60
2019-01-20T03:40:12.530Z,31.43
2019-01-20T03:42:41.114Z,30.60
2019-01-20T03:45:15.588Z,35.13
2019-01-20T03:47:44.438Z,31.30
2019-01-20T03:50:15.372Z,28.37
2019-01-20T03:52:43.968Z,30.83
2019-01-20T03:55:22.096Z,27.90
2019-01-20T03:57:56.087Z,29.83
2019-01-20T04:00:25.344Z,32.57
2019-01-20T04:02:57.261Z,29.23
2019-01-20T04:05:27.001Z,34.63
2019-01-20T04:07:55.446Z,31.90
2019-01-20T04:10:24.045Z,34.17
2019-01-20T04:12:52.573Z,31.23
2019-01-20T04:15:21.907Z,32.57
2019-01-20T04:17:50.333Z,34.73
2019-01-20T04:20:20.899Z,34.23
2019-01-20T04:22:49.372Z,24.77
2019-01-20T04:25:19.813Z,33.20
2019-01-20T04:27:48.400Z,28.70
2019-01-20T04:30:24.199Z,30.10
2019-01-20T04:32:57.454Z,36.57
2019-01-20T04:35:26.036Z,26.07
2019-01-20T04:37:55.131Z,33.07
2019-01-20T04:40:26.837Z,31.87
2019-01-20T04:42:55.430Z,29.83
2019-01-20T04:45:24.856Z,33.23
2019-01-20T04:47:53.697Z,28.13
2019-01-20T04:50:23.981Z,31.73
2019-01-20T04:52:53.174Z,37.23
2019-01-20T04:55:21.712Z,29.10
2019-01-20T04:57:51.773Z,29.67
2019-01-20T05:00:25.171Z,31.13
2019-01-20T05:02:53.834Z,32.17
2019-01-20T05:05:22.245Z,32.00
2019-01-20T05:07:50.706Z,31.07
2019-01-20T05:10:19.794Z,35.43
2019-01-20T05:12:48.533Z,26.43
2019-01-20T05:15:19.911Z,26.80
2019-01-20T05:17:48.503Z,28.43
2019-01-20T05:20:18.401Z,35.63
2019-01-20T05:22:46.865Z,29.47
2019-01-20T05:25:15.645Z,34.43
2019-01-20T05:27:44.091Z,35.33
2019-01-20T05:30:18.054Z,30.43
2019-01-20T05:32:46.632Z,36.23
2019-01-20T05:35:15.164Z,36.70
2019-01-20T05:37:43.660Z,32.93
2019-01-20T05:40:18.282Z,24.23
2019-01-20T05:42:47.415Z,33.13
2019-01-20T05:45:18.411Z,35.27
2019-01-20T05:47:47.193Z,31.87
2019-01-20T05:50:15.999Z,29.10
2019-01-20T05:52:47.427Z,34.10
2019-01-20T05:55:16.474Z,37.67
2019-01-20T05:57:44.962Z,30.37
2019-01-20T06:00:27.013Z,31.73
2019-01-20T06:02:56.819Z,31.57
2019-01-20T06:05:30.838Z,33.07
2019-01-20T06:08:00.879Z,32.07
2019-01-20T06:10:33.627Z,32.93
2019-01-20T06:13:02.565Z,33.80
2019-01-20T06:15:31.121Z,34.83
2019-01-20T06:18:10.240Z,39.93
2019-01-20T06:20:39.617Z,29.77
2019-01-20T06:23:08.533Z,33.17
2019-01-20T06:25:38.749Z,28.27
2019-01-20T06:28:12.503Z,29.23
2019-01-20T06:30:42.874Z,32.63
2019-01-20T06:33:16.693Z,31.00
2019-01-20T06:35:47.337Z,29.77
2019-01-20T06:38:15.819Z,33.30
2019-01-20T06:40:49.778Z,40.17
2019-01-20T06:43:21.774Z,36.47
2019-01-20T06:45:53.221Z,33.67
2019-01-20T06:48:23.780Z,33.50
2019-01-20T06:50:56.786Z,35.90
2019-01-20T06:53:26.059Z,32.97
2019-01-20T06:55:54.837Z,31.60
2019-01-20T06:58:33.434Z,34.63
2019-01-20T07:01:03.537Z,27.43
2019-01-20T07:03:33.715Z,35.80
2019-01-20T07:06:02.289Z,29.93
2019-01-20T07:08:31.999Z,34.07
2019-01-20T07:11:00.453Z,34.67
2019-01-20T07:13:28.938Z,32.67
2019-01-20T07:15:57.568Z,33.83
2019-01-20T07:18:26.028Z,28.50
2019-01-20T07:20:54.470Z,26.80
2019-01-20T07:23:24.473Z,29.70
2019-01-20T07:25:52.940Z,36.97
2019-01-20T07:28:21.374Z,34.00
2019-01-20T07:30:49.880Z,29.77
2019-01-20T07:33:18.460Z,38.70
2019-01-20T07:35:48.529Z,28.87
2019-01-20T07:38:17.190Z,28.77
2019-01-20T07:40:45.720Z,34.07
2019-01-20T07:43:17.088Z,34.97
2019-01-20T07:45:44.327Z,32.43
2019-01-20T07:48:12.791Z,33.97
2019-01-20T07:50:41.578Z,31.23
2019-01-20T07:53:13.224Z,35.10
2019-01-20T07:55:43.546Z,34.23
2019-01-20T07:58:12.239Z,32.53
2019-01-20T08:00:41.203Z,34.37
2019-01-20T08:03:09.715Z,39.10
2019-01-20T08:05:38.339Z,37.70
2019-01-20T08:08:07.048Z,35.53
2019-01-20T08:10:37.350Z,34.47
2019-01-20T08:13:06.258Z,37.33
2019-01-20T08:15:35.002Z,32.00
2019-01-20T08:18:03.688Z,36.33
2019-01-20T08:20:42.816Z,33.90
2019-01-20T08:23:15.702Z,34.23
2019-01-20T08:25:44.179Z,40.93
2019-01-20T08:28:14.336Z,29.97
2019-01-20T08:30:42.715Z,36.03
2019-01-20T08:33:11.549Z,29.77
2019-01-20T08:35:41.589Z,32.47
2019-01-20T08:38:10.197Z,28.03
2019-01-20T08:40:38.658Z,31.20
2019-01-20T08:43:07.099Z,33.23
2019-01-20T08:45:41.417Z,28.57
2019-01-20T08:48:15.462Z,34.27
2019-01-20T08:50:44.498Z,30.30
2019-01-20T08:53:12.999Z,30.37
2019-01-20T08:55:41.547Z,39.47
2019-01-20T08:58:11.813Z,43.10
2019-01-20T09:00:40.685Z,46.03
2019-01-20T09:03:09.366Z,31.83
2019-01-20T09:05:42.392Z,38.00
2019-01-20T09:08:12.500Z,35.90
2019-01-20T09:10:44.607Z,43.60
2019-01-20T09:13:16.816Z,47.23
2019-01-20T09:15:45.309Z,47.40
2019-01-20T09:18:13.893Z,45.63
2019-01-20T09:20:42.422Z,53.97
2019-01-20T09:23:11.251Z,58.47
2019-01-20T09:25:39.773Z,59.13
2019-01-20T09:28:08.391Z,56.13
2019-01-20T09:30:39.635Z,56.40
2019-01-20T09:33:08.058Z,66.67
2019-01-20T09:35:36.495Z,59.43
2019-01-20T09:38:05.666Z,65.60
2019-01-20T09:40:34.202Z,64.00
2019-01-20T09:43:02.661Z,57.27
2019-01-20T09:45:32.120Z,59.50
2019-01-20T09:48:00.552Z,65.60
2019-01-20T09:50:29.055Z,68.43
2019-01-20T09:52:59.648Z,68.33
2019-01-20T09:55:28.067Z,59.53
2019-01-20T09:57:56.532Z,62.27
2019-01-20T10:00:31.060Z,71.37
2019-01-20T10:02:59.530Z,64.87
2019-01-20T10:05:28.648Z,58.07
2019-01-20T10:07:57.070Z,59.33
2019-01-20T10:10:25.491Z,61.03
2019-01-20T10:12:53.962Z,56.67
2019-01-20T10:15:22.574Z,53.17
2019-01-20T10:17:51.079Z,55.87
2019-01-20T10:20:25.501Z,57.63
2019-01-20T10:22:53.919Z,49.60
2019-01-20T10:25:22.424Z,56.17
2019-01-20T10:27:50.986Z,50.27
2019-01-20T10:30:27.838Z,47.17
2019-01-20T10:32:56.507Z,52.80
2019-01-20T10:35:26.616Z,51.57
2019-01-20T10:37:56.807Z,46.83
2019-01-20T10:40:25.352Z,55.77
2019-01-20T10:42:53.810Z,50.37
2019-01-20T10:45:22.340Z,44.83
2019-01-20T10:47:50.920Z,52.97
2019-01-20T10:50:19.695Z,57.30
2019-01-20T10:52:48.402Z,48.77
2019-01-20T10:55:16.931Z,56.63
2019-01-20T10:57:45.354Z,50.07
2019-01-20T11:00:17.094Z,50.57
2019-01-20T11:02:45.525Z,54.80
2019-01-20T11:05:14.393Z,52.67
2019-01-20T11:07:42.834Z,53.03
2019-01-20T11:10:11.984Z,55.83
2019-01-20T11:12:41.009Z,48.70
2019-01-20T11:15:12.554Z,51.07
2019-01-20T11:17:41.008Z,52.13
2019-01-20T11:20:15.532Z,55.30
2019-01-20T11:22:44.012Z,46.70
2019-01-20T11:25:18.103Z,50.47
2019-01-20T11:27:59.660Z,54.10
2019-01-20T11:30:30.778Z,47.77
2019-01-20T11:32:58.659Z,49.03
2019-01-20T11:35:27.122Z,45.37
2019-01-20T11:37:55.719Z,46.43
2019-01-20T11:40:30.377Z,55.23
2019-01-20T11:42:59.082Z,48.67
2019-01-20T11:45:30.177Z,48.57
2019-01-20T11:47:58.611Z,45.23
2019-01-20T11:50:29.969Z,50.73
2019-01-20T11:52:58.425Z,44.77
2019-01-20T11:55:26.866Z,41.47
2019-01-20T11:57:55.311Z,46.53
2019-01-20T12:00:26.819Z,47.63
2019-01-20T12:02:55.279Z,48.20
2019-01-20T12:05:23.824Z,48.23
2019-01-20T12:07:52.230Z,43.67
2019-01-20T12:10:20.818Z,42.47
2019-01-20T12:12:50.906Z,38.30
2019-01-20T12:15:19.384Z,40.73
2019-01-20T12:17:47.948Z,43.97
2019-01-20T12:20:17.419Z,43.13
2019-01-20T12:22:45.928Z,40.20
2019-01-20T12:25:19.106Z,41.60
2019-01-20T12:27:47.586Z,38.13
2019-01-20T12:30:19.306Z,41.73
2019-01-20T12:32:47.820Z,43.97
2019-01-20T12:35:16.481Z,43.13
2019-01-20T12:37:44.948Z,40.23
2019-01-20T12:40:19.241Z,40.37
2019-01-20T12:42:47.766Z,46.40
2019-01-20T12:45:16.357Z,41.00
2019-01-20T12:47:44.876Z,40.87
2019-01-20T12:50:16.522Z,39.03
2019-01-20T12:52:45.066Z,41.43
2019-01-20T12:55:17.021Z,41.27
2019-01-20T12:57:45.560Z,39.07
2019-01-20T13:00:17.127Z,42.23
2019-01-20T13:02:45.908Z,37.80
2019-01-20T13:05:14.613Z,36.20
2019-01-20T13:07:43.096Z,42.43
2019-01-20T13:10:19.132Z,39.30
2019-01-20T13:12:47.761Z,44.40
2019-01-20T13:15:23.738Z,40.37
2019-01-20T13:17:52.256Z,38.30
2019-01-20T13:20:25.855Z,36.00
2019-01-20T13:22:54.352Z,40.83
2019-01-20T13:25:25.211Z,38.73
2019-01-20T13:27:53.717Z,37.30
2019-01-20T13:30:26.988Z,41.60
2019-01-20T13:32:55.459Z,35.57
2019-01-20T13:35:24.741Z,37.43
2019-01-20T13:37:56.813Z,34.80
2019-01-20T13:40:31.118Z,33.77
2019-01-20T13:42:59.552Z,38.53
2019-01-20T13:45:28.010Z,37.87
2019-01-20T13:47:56.433Z,40.07
2019-01-20T13:50:24.889Z,36.63
2019-01-20T13:52:53.401Z,34.40
2019-01-20T13:55:21.882Z,32.80
2019-01-20T13:57:50.339Z,39.80
2019-01-20T14:00:26.333Z,38.90
2019-01-20T14:02:55.327Z,38.03
2019-01-20T14:05:23.783Z,36.33
2019-01-20T14:07:52.204Z,40.13
2019-01-20T14:10:22.664Z,40.13
2019-01-20T14:12:51.149Z,36.97
2019-01-20T14:15:19.745Z,36.23
2019-01-20T14:17:48.334Z,40.10
2019-01-20T14:20:22.311Z,33.30
2019-01-20T14:22:50.890Z,41.07
2019-01-20T14:25:30.418Z,36.43
2019-01-20T14:27:58.851Z,33.63
2019-01-20T14:30:30.064Z,37.07
2019-01-20T14:32:59.406Z,36.53
2019-01-20T14:35:28.080Z,36.70
2019-01-20T14:37:56.576Z,38.27
2019-01-20T14:40:25.103Z,41.77
2019-01-20T14:42:54.161Z,37.33
2019-01-20T14:45:22.761Z,36.27
2019-01-20T14:47:51.324Z,38.97
2019-01-20T14:50:25.264Z,36.30
2019-01-20T14:52:53.882Z,37.73
2019-01-20T14:55:23.275Z,40.03
2019-01-20T14:57:51.778Z,38.67
2019-01-20T15:00:29.250Z,40.80
2019-01-20T15:02:57.892Z,36.97
2019-01-20T15:05:26.404Z,42.97
2019-01-20T15:07:54.886Z,37.70
2019-01-20T15:10:23.390Z,40.27
2019-01-20T15:12:51.830Z,36.63
2019-01-20T15:15:23.308Z,42.23
2019-01-20T15:17:51.762Z,40.53
2019-01-20T15:20:20.284Z,39.37
2019-01-20T15:22:48.876Z,45.27
2019-01-20T15:25:19.776Z,38.70
2019-01-20T15:27:49.054Z,38.90
2019-01-20T15:30:29.427Z,41.57
2019-01-20T15:32:58.821Z,37.03
2019-01-20T15:35:27.299Z,43.23
2019-01-20T15:37:55.736Z,39.23
2019-01-20T15:40:25.725Z,45.37
2019-01-20T15:42:54.406Z,41.37
2019-01-20T15:45:24.009Z,42.87
2019-01-20T15:47:52.802Z,38.63
2019-01-20T15:50:23.515Z,37.20
2019-01-20T15:52:51.994Z,41.10
2019-01-20T15:55:20.390Z,40.80
2019-01-20T15:57:48.880Z,40.33
2019-01-20T16:00:22.660Z,38.83
2019-01-20T16:02:51.338Z,40.60
2019-01-20T16:05:20.342Z,40.70
2019-01-20T16:07:48.835Z,45.73
2019-01-20T16:10:17.919Z,41.00
2019-01-20T16:12:47.340Z,39.50
2019-01-20T16:15:27.670Z,60.30
2019-01-20T16:17:56.480Z,40.07
2019-01-20T16:20:26.174Z,39.97
2019-01-20T16:22:54.743Z,47.37
2019-01-20T16:25:26.092Z,42.23
2019-01-20T16:27:54.760Z,41.17
2019-01-20T16:30:26.209Z,44.20
2019-01-20T16:32:54.667Z,48.80
2019-01-20T16:35:24.458Z,44.17
2019-01-20T16:37:53.066Z,41.17
2019-01-20T16:40:23.765Z,44.03
2019-01-20T16:42:52.220Z,48.47
2019-01-20T16:45:23.655Z,38.37
2019-01-20T16:47:52.089Z,43.53
2019-01-20T16:50:23.055Z,51.73
2019-01-20T16:52:54.652Z,52.13
2019-01-20T16:55:21.821Z,46.67
2019-01-20T16:57:50.287Z,48.27
2019-01-20T17:00:24.219Z,44.17
2019-01-20T17:02:52.885Z,59.03
2019-01-20T17:05:21.411Z,44.13
2019-01-20T17:07:49.925Z,50.50
2019-01-20T17:10:24.064Z,45.33
2019-01-20T17:12:52.592Z,48.20
2019-01-20T17:15:29.893Z,46.97
2019-01-20T17:17:58.444Z,50.17
2019-01-20T17:20:26.981Z,41.13
2019-01-20T17:22:55.846Z,52.60
2019-01-20T17:25:24.330Z,42.93
2019-01-20T17:27:52.799Z,47.50
2019-01-20T17:30:24.258Z,41.87
2019-01-20T17:32:53.438Z,41.40
2019-01-20T17:35:21.857Z,42.30
2019-01-20T17:37:51.713Z,45.70
2019-01-20T17:40:23.190Z,43.20
2019-01-20T17:42:51.858Z,50.57
2019-01-20T17:45:26.262Z,50.63
2019-01-20T17:47:54.738Z,50.93
2019-01-20T17:50:28.874Z,50.67
2019-01-20T17:52:58.908Z,54.77
2019-01-20T17:55:28.235Z,48.57
2019-01-20T17:57:56.973Z,45.80
2019-01-20T18:00:33.729Z,49.37
2019-01-20T18:03:02.832Z,53.43
2019-01-20T18:05:31.340Z,45.80
2019-01-20T18:07:59.796Z,50.07
2019-01-20T18:10:28.208Z,46.80
2019-01-20T18:12:56.821Z,44.07
2019-01-20T18:15:26.665Z,54.53
2019-01-20T18:17:55.272Z,47.27
2019-01-20T18:20:29.432Z,47.37
2019-01-20T18:22:58.194Z,52.30
2019-01-20T18:25:26.755Z,50.87
2019-01-20T18:27:55.333Z,52.30
2019-01-20T18:30:26.811Z,50.07
2019-01-20T18:32:55.292Z,47.63
2019-01-20T18:35:25.069Z,48.63
2019-01-20T18:37:53.566Z,49.67
2019-01-20T18:40:23.705Z,48.10
2019-01-20T18:42:52.305Z,46.17
2019-01-20T18:45:23.124Z,57.87
2019-01-20T18:47:51.638Z,51.70
2019-01-20T18:50:23.011Z,48.73
2019-01-20T18:52:51.565Z,49.83
2019-01-20T18:55:20.057Z,49.43
2019-01-20T18:57:48.492Z,48.27
2019-01-20T19:00:35.070Z,58.33
2019-01-20T19:03:03.606Z,54.57
2019-01-20T19:05:32.103Z,48.90
2019-01-20T19:08:00.640Z,55.87
2019-01-20T19:10:29.078Z,57.20
2019-01-20T19:12:57.506Z,55.23
2019-01-20T19:15:26.064Z,52.67
2019-01-20T19:17:54.571Z,48.30
2019-01-20T19:20:27.402Z,46.83
2019-01-20T19:22:57.809Z,46.67
2019-01-20T19:25:26.257Z,56.80
2019-01-20T19:27:55.131Z,53.20
2019-01-20T19:30:35.550Z,53.00
2019-01-20T19:33:04.438Z,58.13
2019-01-20T19:35:32.946Z,56.37
2019-01-20T19:38:01.464Z,59.87
2019-01-20T19:40:29.890Z,62.20
2019-01-20T19:42:58.401Z,70.30
2019-01-20T19:45:27.415Z,61.93
2019-01-20T19:47:55.931Z,59.03
2019-01-20T19:50:25.607Z,57.50
2019-01-20T19:52:54.049Z,54.80
2019-01-20T19:55:25.154Z,61.90
2019-01-20T19:57:53.764Z,63.57
2019-01-20T20:00:24.365Z,58.03
2019-01-20T20:02:52.868Z,65.63
2019-01-20T20:05:22.679Z,60.47
2019-01-20T20:07:52.592Z,66.50
2019-01-20T20:10:26.458Z,61.90
2019-01-20T20:12:56.330Z,58.37
2019-01-20T20:15:26.641Z,57.50
2019-01-20T20:17:55.225Z,59.07
2019-01-20T20:20:24.306Z,61.10
2019-01-20T20:22:53.181Z,57.20
2019-01-20T20:25:23.658Z,65.13
2019-01-20T20:27:52.953Z,59.40
2019-01-20T20:30:27.393Z,58.87
2019-01-20T20:32:55.814Z,57.43
2019-01-20T20:35:24.362Z,64.10
2019-01-20T20:37:52.939Z,66.43
2019-01-20T20:40:21.867Z,61.13
2019-01-20T20:42:50.303Z,58.00
2019-01-20T20:45:21.832Z,62.07
2019-01-20T20:47:50.356Z,56.13
2019-01-20T20:50:19.392Z,64.67
2019-01-20T20:52:47.939Z,61.30
2019-01-20T20:55:16.519Z,64.27
2019-01-20T20:57:45.329Z,58.60
2019-01-20T21:00:28.458Z,50.77
2019-01-20T21:02:57.146Z,66.80
2019-01-20T21:05:25.674Z,56.67
2019-01-20T21:07:57.197Z,54.90
2019-01-20T21:10:25.725Z,59.00
2019-01-20T21:12:54.185Z,59.33
2019-01-20T21:15:25.582Z,55.97
2019-01-20T21:17:54.550Z,55.77
2019-01-20T21:20:23.924Z,53.63
2019-01-20T21:22:52.373Z,59.87
2019-01-20T21:25:20.897Z,58.73
2019-01-20T21:27:49.376Z,59.97
2019-01-20T21:30:23.488Z,60.60
2019-01-20T21:32:52.004Z,56.30
2019-01-20T21:35:20.798Z,58.50
2019-01-20T21:37:49.350Z,53.13
2019-01-20T21:40:19.203Z,57.13
2019-01-20T21:42:48.235Z,55.83
2019-01-20T21:45:18.637Z,54.13
2019-01-20T21:47:47.481Z,56.47
2019-01-20T21:50:24.525Z,53.87
2019-01-20T21:52:52.962Z,55.17
2019-01-20T21:55:21.498Z,57.27
2019-01-20T21:57:49.943Z,52.67
2019-01-20T22:00:24.099Z,56.67
2019-01-20T22:02:52.553Z,62.53
2019-01-20T22:05:22.790Z,51.77
2019-01-20T22:07:51.296Z,54.17
2019-01-20T22:10:21.828Z,58.10
2019-01-20T22:12:50.271Z,52.33
2019-01-20T22:15:19.896Z,55.30
2019-01-20T22:17:49.914Z,61.00
2019-01-20T22:20:20.182Z,58.67
2019-01-20T22:22:48.787Z,61.87
2019-01-20T22:25:17.799Z,60.00
2019-01-20T22:27:46.375Z,60.53
2019-01-20T22:30:17.521Z,56.87
2019-01-20T22:32:45.966Z,56.97
2019-01-20T22:35:14.580Z,58.13
2019-01-20T22:37:43.094Z,57.80
2019-01-20T22:40:14.666Z,65.57
2019-01-20T22:42:43.181Z,52.67
2019-01-20T22:45:14.408Z,59.23
2019-01-20T22:47:42.921Z,53.70
2019-01-20T22:50:13.482Z,53.27
2019-01-20T22:52:42.068Z,56.17
2019-01-20T22:55:12.866Z,51.63
2019-01-20T22:57:41.374Z,52.03
2019-01-20T23:00:32.645Z,54.27
2019-01-20T23:03:01.087Z,53.50
2019-01-20T23:05:29.528Z,53.43
2019-01-20T23:07:58.005Z,55.00
2019-01-20T23:10:26.462Z,56.60
2019-01-20T23:12:54.895Z,56.67
2019-01-20T23:15:23.350Z,54.83
2019-01-20T23:17:51.855Z,51.67
2019-01-20T23:20:20.387Z,53.57
2019-01-20T23:22:48.824Z,61.67
2019-01-20T23:25:17.273Z,53.07
2019-01-20T23:27:45.794Z,53.93
2019-01-20T23:30:16.047Z,48.43
2019-01-20T23:32:44.476Z,53.63
2019-01-20T23:35:12.985Z,55.17
2019-01-20T23:37:41.454Z,51.17
2019-01-20T23:40:17.511Z,61.93
2019-01-20T23:42:45.968Z,55.63
2019-01-20T23:45:14.549Z,54.83
2019-01-20T23:47:43.111Z,54.33
2019-01-20T23:50:16.564Z,51.33
2019-01-20T23:52:45.092Z,54.53
2019-01-20T23:55:14.449Z,54.30
2019-01-20T23:57:42.908Z,48.87
